AAY206 KOKC-KAUS
Flight info
| Callsign | AAY206 |
|---|---|
| Flight time | 0h 57m |
| Altitude | 35000 |
| Route | MUDDE3 MOOSE WINDU SEWZY6 |
| Aircraft | A320/M-SDE3FGHIRWY/LB1 |
Departure
| Time | 2026-04-22 04:26 |
|---|---|
| Airport | OKC Will Rogers World Airport (KOKC) |
Arrival
| Time | 2026-04-22 05:23 |
|---|---|
| Airport | Austin Bergstrom International Airport (KAUS) |
| Time | Latitude | Longitude | Altitude | Speed | Heading |
|---|---|---|---|---|---|
| 2026-04-22 03:30 | 35.39465 | -97.59410 | 1297 ft | 0 kts | 336° |
| 2026-04-22 04:12 | 35.39450 | -97.59402 | 1297 ft | 2 kts | 336° |
| 2026-04-22 04:12 | 35.39435 | -97.59393 | 1297 ft | 2 kts | 336° |
| 2026-04-22 04:13 | 35.39419 | -97.59385 | 1297 ft | 2 kts | 336° |
| 2026-04-22 04:13 | 35.39404 | -97.59375 | 1297 ft | 3 kts | 312° |
| 2026-04-22 04:13 | 35.39394 | -97.59357 | 1297 ft | 2 kts | 295° |
| 2026-04-22 04:13 | 35.39386 | -97.59338 | 1297 ft | 3 kts | 293° |
| 2026-04-22 04:14 | 35.39382 | -97.59316 | 1297 ft | 3 kts | 269° |
| 2026-04-22 04:14 | 35.39383 | -97.59296 | 1296 ft | 1 kts | 269° |
| 2026-04-22 04:18 | 35.39383 | -97.59306 | 1296 ft | 6 kts | 269° |
| 2026-04-22 04:18 | 35.39382 | -97.59353 | 1297 ft | 5 kts | 269° |
| 2026-04-22 04:18 | 35.39382 | -97.59385 | 1297 ft | 3 kts | 271° |
| 2026-04-22 04:18 | 35.39382 | -97.59405 | 1297 ft | 2 kts | 271° |
| 2026-04-22 04:19 | 35.39382 | -97.59425 | 1298 ft | 4 kts | 270° |
| 2026-04-22 04:19 | 35.39383 | -97.59457 | 1298 ft | 3 kts | 270° |
| 2026-04-22 04:19 | 35.39375 | -97.59501 | 1298 ft | 9 kts | 243° |
| 2026-04-22 04:19 | 35.39309 | -97.59534 | 1298 ft | 12 kts | 180° |
| 2026-04-22 04:20 | 35.39220 | -97.59507 | 1295 ft | 15 kts | 116° |
| 2026-04-22 04:20 | 35.39216 | -97.59375 | 1296 ft | 17 kts | 89° |
| 2026-04-22 04:20 | 35.39216 | -97.59250 | 1295 ft | 15 kts | 90° |
| 2026-04-22 04:20 | 35.39216 | -97.59115 | 1292 ft | 15 kts | 89° |
| 2026-04-22 04:21 | 35.39272 | -97.59062 | 1293 ft | 10 kts | 1° |
| 2026-04-22 04:21 | 35.39333 | -97.59063 | 1294 ft | 7 kts | 360° |
| 2026-04-22 04:21 | 35.39377 | -97.59063 | 1295 ft | 6 kts | 359° |
| 2026-04-22 04:21 | 35.39435 | -97.59063 | 1294 ft | 15 kts | 0° |
| 2026-04-22 04:22 | 35.39565 | -97.59063 | 1292 ft | 19 kts | 0° |
| 2026-04-22 04:22 | 35.39693 | -97.59062 | 1294 ft | 17 kts | 0° |
| 2026-04-22 04:22 | 35.39805 | -97.59062 | 1295 ft | 16 kts | 359° |
| 2026-04-22 04:22 | 35.39916 | -97.59063 | 1292 ft | 16 kts | 360° |
| 2026-04-22 04:23 | 35.40028 | -97.59063 | 1292 ft | 16 kts | 0° |
| 2026-04-22 04:23 | 35.40130 | -97.59062 | 1294 ft | 14 kts | 0° |
| 2026-04-22 04:23 | 35.40221 | -97.59062 | 1293 ft | 13 kts | 0° |
| 2026-04-22 04:23 | 35.40312 | -97.59062 | 1291 ft | 14 kts | 0° |
| 2026-04-22 04:24 | 35.40406 | -97.59062 | 1291 ft | 11 kts | 359° |
| 2026-04-22 04:24 | 35.40474 | -97.59060 | 1292 ft | 8 kts | 14° |
| 2026-04-22 04:24 | 35.40500 | -97.59021 | 1293 ft | 4 kts | 77° |
| 2026-04-22 04:24 | 35.40501 | -97.59015 | 1293 ft | 0 kts | 79° |
| 2026-04-22 04:25 | 35.40501 | -97.59013 | 1293 ft | 2 kts | 80° |
| 2026-04-22 04:25 | 35.40490 | -97.58919 | 1294 ft | 15 kts | 126° |
| 2026-04-22 04:25 | 35.40390 | -97.58896 | 1295 ft | 16 kts | 180° |
| 2026-04-22 04:26 | 35.40268 | -97.58896 | 1294 ft | 24 kts | 180° |
| 2026-04-22 04:26 | 35.39829 | -97.58896 | 1291 ft | 100 kts | 180° |
| 2026-04-22 04:26 | 35.38961 | -97.58900 | 1508 ft | 133 kts | 179° |
| 2026-04-22 04:26 | 35.38043 | -97.58921 | 2256 ft | 133 kts | 181° |
| 2026-04-22 04:27 | 35.37116 | -97.58927 | 2941 ft | 134 kts | 182° |
| 2026-04-22 04:27 | 35.36115 | -97.58923 | 3354 ft | 157 kts | 181° |
| 2026-04-22 04:27 | 35.34949 | -97.58929 | 3722 ft | 179 kts | 182° |
| 2026-04-22 04:27 | 35.33632 | -97.58954 | 4037 ft | 205 kts | 182° |
| 2026-04-22 04:28 | 35.32118 | -97.58977 | 4537 ft | 230 kts | 179° |
| 2026-04-22 04:28 | 35.30443 | -97.58812 | 5182 ft | 250 kts | 176° |
| 2026-04-22 04:28 | 35.28686 | -97.58598 | 6123 ft | 256 kts | 176° |
| 2026-04-22 04:28 | 35.26891 | -97.58354 | 7050 ft | 262 kts | 175° |
| 2026-04-22 04:29 | 35.25057 | -97.58093 | 7955 ft | 268 kts | 175° |
| 2026-04-22 04:29 | 35.23183 | -97.57829 | 8869 ft | 274 kts | 174° |
| 2026-04-22 04:29 | 35.21266 | -97.57568 | 9784 ft | 280 kts | 174° |
| 2026-04-22 04:29 | 35.19284 | -97.57301 | 10383 ft | 298 kts | 174° |
| 2026-04-22 04:30 | 35.17146 | -97.57017 | 10825 ft | 317 kts | 174° |
| 2026-04-22 04:30 | 35.14921 | -97.56724 | 11560 ft | 325 kts | 174° |
| 2026-04-22 04:30 | 35.12650 | -97.56428 | 12354 ft | 332 kts | 174° |
| 2026-04-22 04:30 | 35.10334 | -97.56129 | 13161 ft | 337 kts | 174° |
| 2026-04-22 04:31 | 35.07980 | -97.55829 | 13945 ft | 343 kts | 174° |
| 2026-04-22 04:31 | 35.05593 | -97.55525 | 14651 ft | 348 kts | 174° |
| 2026-04-22 04:31 | 35.03162 | -97.55214 | 15369 ft | 353 kts | 174° |
| 2026-04-22 04:31 | 35.00704 | -97.54899 | 16098 ft | 357 kts | 174° |
| 2026-04-22 04:32 | 34.98221 | -97.54576 | 16817 ft | 361 kts | 174° |
| 2026-04-22 04:32 | 34.95707 | -97.54252 | 17525 ft | 365 kts | 174° |
| 2026-04-22 04:32 | 34.93196 | -97.53929 | 18226 ft | 370 kts | 174° |
| 2026-04-22 04:32 | 34.90624 | -97.53597 | 18869 ft | 374 kts | 174° |
| 2026-04-22 04:33 | 34.88018 | -97.53263 | 19487 ft | 378 kts | 174° |
| 2026-04-22 04:33 | 34.85393 | -97.52929 | 20118 ft | 381 kts | 175° |
| 2026-04-22 04:33 | 34.82743 | -97.52591 | 20747 ft | 385 kts | 175° |
| 2026-04-22 04:33 | 34.80066 | -97.52251 | 21371 ft | 388 kts | 175° |
| 2026-04-22 04:34 | 34.77365 | -97.51907 | 21999 ft | 392 kts | 175° |
| 2026-04-22 04:34 | 34.74642 | -97.51559 | 22620 ft | 395 kts | 175° |
| 2026-04-22 04:34 | 34.71896 | -97.51210 | 23242 ft | 398 kts | 175° |
| 2026-04-22 04:34 | 34.69127 | -97.50858 | 23857 ft | 402 kts | 175° |
| 2026-04-22 04:35 | 34.66337 | -97.50501 | 24374 ft | 405 kts | 175° |
| 2026-04-22 04:35 | 34.63556 | -97.50148 | 24893 ft | 407 kts | 175° |
| 2026-04-22 04:35 | 34.60735 | -97.49789 | 25406 ft | 409 kts | 175° |
| 2026-04-22 04:35 | 34.57895 | -97.49427 | 25909 ft | 412 kts | 175° |
| 2026-04-22 04:36 | 34.55038 | -97.49063 | 26395 ft | 414 kts | 175° |
| 2026-04-22 04:36 | 34.52164 | -97.48701 | 26877 ft | 416 kts | 176° |
| 2026-04-22 04:36 | 34.49276 | -97.48337 | 27340 ft | 418 kts | 176° |
| 2026-04-22 04:36 | 34.46370 | -97.47966 | 27794 ft | 421 kts | 176° |
| 2026-04-22 04:37 | 34.43449 | -97.47591 | 28251 ft | 423 kts | 176° |
| 2026-04-22 04:37 | 34.41508 | -97.47343 | 28534 ft | 425 kts | 176° |
| 2026-04-22 04:37 | 34.38562 | -97.46970 | 28969 ft | 427 kts | 176° |
| 2026-04-22 04:37 | 34.35598 | -97.46597 | 29403 ft | 429 kts | 176° |
| 2026-04-22 04:38 | 34.32617 | -97.46223 | 29829 ft | 432 kts | 176° |
| 2026-04-22 04:38 | 34.29622 | -97.45845 | 30234 ft | 434 kts | 176° |
| 2026-04-22 04:38 | 34.26612 | -97.45440 | 30579 ft | 436 kts | 176° |
| 2026-04-22 04:38 | 34.23589 | -97.45015 | 30912 ft | 438 kts | 176° |
| 2026-04-22 04:39 | 34.20551 | -97.44579 | 31241 ft | 440 kts | 176° |
| 2026-04-22 04:39 | 34.17500 | -97.44137 | 31563 ft | 442 kts | 176° |
| 2026-04-22 04:39 | 34.14437 | -97.43697 | 31894 ft | 443 kts | 176° |
| 2026-04-22 04:39 | 34.11375 | -97.43259 | 32332 ft | 442 kts | 176° |
| 2026-04-22 04:40 | 34.08323 | -97.42826 | 32781 ft | 441 kts | 176° |
| 2026-04-22 04:40 | 34.05278 | -97.42400 | 33213 ft | 440 kts | 176° |
| 2026-04-22 04:40 | 34.02238 | -97.41979 | 33645 ft | 439 kts | 176° |
| 2026-04-22 04:40 | 33.99205 | -97.41560 | 34084 ft | 438 kts | 176° |
| 2026-04-22 04:41 | 33.96213 | -97.41147 | 34458 ft | 437 kts | 177° |
| 2026-04-22 04:41 | 33.93191 | -97.40730 | 34799 ft | 437 kts | 177° |
| 2026-04-22 04:41 | 33.90169 | -97.40312 | 35081 ft | 438 kts | 177° |
| 2026-04-22 04:42 | 33.84184 | -97.39476 | 35182 ft | 425 kts | 177° |
| 2026-04-22 04:42 | 33.78355 | -97.38668 | 35189 ft | 420 kts | 177° |
| 2026-04-22 04:43 | 33.72552 | -97.37865 | 35197 ft | 419 kts | 177° |
| 2026-04-22 04:43 | 33.66756 | -97.37059 | 35202 ft | 419 kts | 178° |
| 2026-04-22 04:44 | 33.60970 | -97.36266 | 35199 ft | 418 kts | 178° |
| 2026-04-22 04:44 | 33.55187 | -97.35475 | 35192 ft | 418 kts | 178° |
| 2026-04-22 04:45 | 33.49411 | -97.34677 | 35184 ft | 418 kts | 178° |
| 2026-04-22 04:45 | 33.43639 | -97.33880 | 35179 ft | 417 kts | 178° |
| 2026-04-22 04:46 | 33.37866 | -97.33091 | 35173 ft | 417 kts | 178° |
| 2026-04-22 04:46 | 33.32099 | -97.32301 | 35177 ft | 417 kts | 178° |
| 2026-04-22 04:47 | 33.26337 | -97.31514 | 35180 ft | 416 kts | 179° |
| 2026-04-22 04:47 | 33.20585 | -97.30728 | 35183 ft | 416 kts | 179° |
| 2026-04-22 04:48 | 33.14840 | -97.29939 | 35179 ft | 415 kts | 179° |
| 2026-04-22 04:48 | 33.09094 | -97.29147 | 35181 ft | 415 kts | 179° |
| 2026-04-22 04:49 | 33.03356 | -97.28365 | 35182 ft | 414 kts | 179° |
| 2026-04-22 04:49 | 32.97626 | -97.27590 | 35178 ft | 414 kts | 179° |
| 2026-04-22 04:50 | 32.91939 | -97.26818 | 35182 ft | 414 kts | 179° |
| 2026-04-22 04:50 | 32.86228 | -97.26040 | 35165 ft | 413 kts | 179° |
| 2026-04-22 04:51 | 32.80511 | -97.25263 | 35078 ft | 417 kts | 179° |
| 2026-04-22 04:51 | 32.77627 | -97.24873 | 34835 ft | 417 kts | 179° |
| 2026-04-22 04:51 | 32.74749 | -97.24485 | 34598 ft | 415 kts | 179° |
| 2026-04-22 04:51 | 32.71891 | -97.24099 | 34386 ft | 412 kts | 179° |
| 2026-04-22 04:52 | 32.69058 | -97.23714 | 34151 ft | 409 kts | 179° |
| 2026-04-22 04:52 | 32.66234 | -97.23333 | 33883 ft | 407 kts | 179° |
| 2026-04-22 04:52 | 32.63428 | -97.22956 | 33610 ft | 405 kts | 179° |
| 2026-04-22 04:52 | 32.60628 | -97.22579 | 33339 ft | 403 kts | 179° |
| 2026-04-22 04:53 | 32.57847 | -97.22206 | 33075 ft | 401 kts | 179° |
| 2026-04-22 04:53 | 32.55077 | -97.21833 | 32825 ft | 400 kts | 179° |
| 2026-04-22 04:53 | 32.52316 | -97.21461 | 32561 ft | 399 kts | 179° |
| 2026-04-22 04:53 | 32.49565 | -97.21090 | 32303 ft | 397 kts | 179° |
| 2026-04-22 04:54 | 32.46827 | -97.20723 | 32047 ft | 395 kts | 179° |
| 2026-04-22 04:54 | 32.44090 | -97.20359 | 31791 ft | 394 kts | 179° |
| 2026-04-22 04:54 | 32.41371 | -97.19996 | 31541 ft | 393 kts | 179° |
| 2026-04-22 04:54 | 32.38660 | -97.19631 | 31291 ft | 391 kts | 178° |
| 2026-04-22 04:55 | 32.35955 | -97.19270 | 31026 ft | 390 kts | 178° |
| 2026-04-22 04:55 | 32.33258 | -97.18910 | 30784 ft | 389 kts | 178° |
| 2026-04-22 04:55 | 32.30575 | -97.18550 | 30545 ft | 388 kts | 178° |
| 2026-04-22 04:55 | 32.27927 | -97.18194 | 30338 ft | 387 kts | 178° |
| 2026-04-22 04:56 | 32.25260 | -97.17836 | 30074 ft | 385 kts | 178° |
| 2026-04-22 04:56 | 32.22601 | -97.17479 | 29799 ft | 384 kts | 178° |
| 2026-04-22 04:56 | 32.19950 | -97.17122 | 29523 ft | 383 kts | 178° |
| 2026-04-22 04:56 | 32.17310 | -97.16768 | 29248 ft | 381 kts | 178° |
| 2026-04-22 04:57 | 32.14682 | -97.16418 | 28977 ft | 379 kts | 178° |
| 2026-04-22 04:57 | 32.12061 | -97.16070 | 28714 ft | 378 kts | 178° |
| 2026-04-22 04:57 | 32.09449 | -97.15724 | 28445 ft | 377 kts | 178° |
| 2026-04-22 04:57 | 32.06851 | -97.15379 | 28180 ft | 375 kts | 178° |
| 2026-04-22 04:58 | 32.04263 | -97.15035 | 27918 ft | 374 kts | 178° |
| 2026-04-22 04:58 | 32.01684 | -97.14693 | 27661 ft | 372 kts | 178° |
| 2026-04-22 04:58 | 31.99115 | -97.14353 | 27404 ft | 371 kts | 178° |
| 2026-04-22 04:58 | 31.96555 | -97.14013 | 27156 ft | 370 kts | 178° |
| 2026-04-22 04:59 | 31.94000 | -97.13672 | 26897 ft | 368 kts | 178° |
| 2026-04-22 04:59 | 31.91460 | -97.13331 | 26649 ft | 367 kts | 178° |
| 2026-04-22 04:59 | 31.88924 | -97.12990 | 26400 ft | 366 kts | 178° |
| 2026-04-22 04:59 | 31.86399 | -97.12652 | 26155 ft | 364 kts | 178° |
| 2026-04-22 05:00 | 31.83887 | -97.12320 | 25911 ft | 363 kts | 178° |
| 2026-04-22 05:00 | 31.81382 | -97.11989 | 25668 ft | 362 kts | 178° |
| 2026-04-22 05:00 | 31.78883 | -97.11659 | 25422 ft | 361 kts | 178° |
| 2026-04-22 05:00 | 31.76394 | -97.11329 | 25179 ft | 359 kts | 178° |
| 2026-04-22 05:01 | 31.73917 | -97.11003 | 24958 ft | 358 kts | 178° |
| 2026-04-22 05:01 | 31.71443 | -97.10679 | 24724 ft | 357 kts | 178° |
| 2026-04-22 05:01 | 31.68980 | -97.10357 | 24495 ft | 356 kts | 178° |
| 2026-04-22 05:01 | 31.66521 | -97.10033 | 24261 ft | 355 kts | 177° |
| 2026-04-22 05:02 | 31.64074 | -97.09709 | 24036 ft | 354 kts | 177° |
| 2026-04-22 05:02 | 31.61633 | -97.09386 | 23814 ft | 353 kts | 177° |
| 2026-04-22 05:02 | 31.59197 | -97.09061 | 23557 ft | 352 kts | 177° |
| 2026-04-22 05:02 | 31.56769 | -97.08740 | 23285 ft | 350 kts | 177° |
| 2026-04-22 05:03 | 31.54380 | -97.08546 | 23023 ft | 346 kts | 185° |
| 2026-04-22 05:03 | 31.52000 | -97.08817 | 22757 ft | 341 kts | 194° |
| 2026-04-22 05:03 | 31.49725 | -97.09547 | 22494 ft | 338 kts | 202° |
| 2026-04-22 05:03 | 31.47502 | -97.10429 | 22236 ft | 337 kts | 201° |
| 2026-04-22 05:04 | 31.45284 | -97.11300 | 21983 ft | 336 kts | 201° |
| 2026-04-22 05:04 | 31.43069 | -97.12164 | 21731 ft | 335 kts | 201° |
| 2026-04-22 05:04 | 31.40864 | -97.13024 | 21477 ft | 334 kts | 201° |
| 2026-04-22 05:04 | 31.38662 | -97.13883 | 21220 ft | 333 kts | 201° |
| 2026-04-22 05:05 | 31.36472 | -97.14740 | 20973 ft | 332 kts | 201° |
| 2026-04-22 05:05 | 31.34275 | -97.15600 | 20725 ft | 331 kts | 201° |
| 2026-04-22 05:05 | 31.32096 | -97.16452 | 20480 ft | 330 kts | 201° |
| 2026-04-22 05:05 | 31.29919 | -97.17302 | 20246 ft | 329 kts | 201° |
| 2026-04-22 05:06 | 31.27746 | -97.18149 | 20000 ft | 328 kts | 201° |
| 2026-04-22 05:06 | 31.25581 | -97.18994 | 19769 ft | 328 kts | 201° |
| 2026-04-22 05:06 | 31.23419 | -97.19839 | 19535 ft | 327 kts | 201° |
| 2026-04-22 05:06 | 31.21259 | -97.20683 | 19298 ft | 326 kts | 201° |
| 2026-04-22 05:07 | 31.19108 | -97.21522 | 19063 ft | 326 kts | 201° |
| 2026-04-22 05:07 | 31.16987 | -97.22349 | 18840 ft | 325 kts | 201° |
| 2026-04-22 05:07 | 31.14843 | -97.23184 | 18612 ft | 324 kts | 201° |
| 2026-04-22 05:07 | 31.12704 | -97.24016 | 18373 ft | 324 kts | 201° |
| 2026-04-22 05:08 | 31.10569 | -97.24844 | 18109 ft | 323 kts | 201° |
| 2026-04-22 05:08 | 31.08444 | -97.25668 | 17847 ft | 321 kts | 201° |
| 2026-04-22 05:08 | 31.06326 | -97.26491 | 17588 ft | 320 kts | 201° |
| 2026-04-22 05:08 | 31.04221 | -97.27308 | 17330 ft | 319 kts | 201° |
| 2026-04-22 05:09 | 31.02118 | -97.28123 | 17077 ft | 317 kts | 201° |
| 2026-04-22 05:09 | 31.00025 | -97.28934 | 16823 ft | 316 kts | 201° |
| 2026-04-22 05:09 | 30.97944 | -97.29743 | 16576 ft | 315 kts | 201° |
| 2026-04-22 05:09 | 30.95874 | -97.30546 | 16324 ft | 313 kts | 201° |
| 2026-04-22 05:10 | 30.93807 | -97.31345 | 16077 ft | 312 kts | 201° |
| 2026-04-22 05:10 | 30.91748 | -97.32140 | 15721 ft | 312 kts | 201° |
| 2026-04-22 05:10 | 30.89692 | -97.32941 | 15280 ft | 312 kts | 201° |
| 2026-04-22 05:10 | 30.87630 | -97.33751 | 14920 ft | 311 kts | 201° |
| 2026-04-22 05:11 | 30.85580 | -97.34556 | 14485 ft | 312 kts | 201° |
| 2026-04-22 05:11 | 30.83539 | -97.35358 | 14214 ft | 307 kts | 201° |
| 2026-04-22 05:11 | 30.81519 | -97.36161 | 13825 ft | 304 kts | 203° |
| 2026-04-22 05:11 | 30.79620 | -97.37180 | 13110 ft | 299 kts | 208° |
| 2026-04-22 05:12 | 30.77765 | -97.38237 | 12605 ft | 294 kts | 208° |
| 2026-04-22 05:12 | 30.75936 | -97.39287 | 12175 ft | 292 kts | 208° |
| 2026-04-22 05:12 | 30.74118 | -97.40332 | 11759 ft | 290 kts | 207° |
| 2026-04-22 05:12 | 30.72337 | -97.41354 | 11352 ft | 288 kts | 207° |
| 2026-04-22 05:13 | 30.70543 | -97.42382 | 10940 ft | 287 kts | 207° |
| 2026-04-22 05:13 | 30.68759 | -97.43402 | 10528 ft | 285 kts | 207° |
| 2026-04-22 05:13 | 30.66983 | -97.44413 | 10119 ft | 283 kts | 207° |
| 2026-04-22 05:13 | 30.65219 | -97.45415 | 9686 ft | 281 kts | 206° |
| 2026-04-22 05:14 | 30.63470 | -97.46409 | 9276 ft | 279 kts | 206° |
| 2026-04-22 05:14 | 30.61735 | -97.47397 | 8881 ft | 276 kts | 206° |
| 2026-04-22 05:14 | 30.60016 | -97.48375 | 8482 ft | 274 kts | 206° |
| 2026-04-22 05:14 | 30.58311 | -97.49346 | 8083 ft | 272 kts | 206° |
| 2026-04-22 05:15 | 30.56621 | -97.50307 | 7676 ft | 269 kts | 205° |
| 2026-04-22 05:15 | 30.54944 | -97.51261 | 7291 ft | 267 kts | 205° |
| 2026-04-22 05:15 | 30.53285 | -97.52206 | 6913 ft | 265 kts | 205° |
| 2026-04-22 05:15 | 30.51645 | -97.53138 | 6554 ft | 257 kts | 205° |
| 2026-04-22 05:16 | 30.50113 | -97.54007 | 6371 ft | 234 kts | 204° |
| 2026-04-22 05:16 | 30.48693 | -97.54811 | 5945 ft | 226 kts | 204° |
| 2026-04-22 05:16 | 30.47313 | -97.55589 | 5807 ft | 224 kts | 203° |
| 2026-04-22 05:16 | 30.45898 | -97.56386 | 5699 ft | 226 kts | 203° |
| 2026-04-22 05:17 | 30.44487 | -97.57185 | 5593 ft | 225 kts | 205° |
| 2026-04-22 05:17 | 30.43203 | -97.58222 | 5435 ft | 227 kts | 220° |
| 2026-04-22 05:17 | 30.42121 | -97.59506 | 5162 ft | 217 kts | 221° |
| 2026-04-22 05:17 | 30.41079 | -97.60752 | 4681 ft | 215 kts | 224° |
| 2026-04-22 05:18 | 30.39416 | -97.63650 | 3678 ft | 216 kts | 232° |
| 2026-04-22 05:18 | 30.38648 | -97.65136 | 3201 ft | 215 kts | 233° |
| 2026-04-22 05:18 | 30.37891 | -97.66622 | 3004 ft | 215 kts | 233° |
| 2026-04-22 05:19 | 30.37122 | -97.68109 | 3000 ft | 215 kts | 230° |
| 2026-04-22 05:19 | 30.36032 | -97.69154 | 2999 ft | 196 kts | 190° |
| 2026-04-22 05:19 | 30.34810 | -97.68986 | 2990 ft | 173 kts | 150° |
| 2026-04-22 05:19 | 30.33794 | -97.68292 | 2872 ft | 167 kts | 162° |
| 2026-04-22 05:20 | 30.32642 | -97.68287 | 2712 ft | 166 kts | 181° |
| 2026-04-22 05:20 | 30.31519 | -97.68252 | 2498 ft | 158 kts | 174° |
| 2026-04-22 05:20 | 30.30451 | -97.68198 | 2306 ft | 151 kts | 173° |
| 2026-04-22 05:20 | 30.29459 | -97.68162 | 2118 ft | 136 kts | 174° |
| 2026-04-22 05:21 | 30.28536 | -97.68133 | 1945 ft | 130 kts | 173° |
| 2026-04-22 05:21 | 30.27638 | -97.68106 | 1766 ft | 128 kts | 174° |
| 2026-04-22 05:21 | 30.26757 | -97.68081 | 1599 ft | 127 kts | 174° |
| 2026-04-22 05:21 | 30.25893 | -97.68058 | 1432 ft | 123 kts | 175° |
| 2026-04-22 05:22 | 30.25035 | -97.68035 | 1297 ft | 123 kts | 176° |
| 2026-04-22 05:22 | 30.24173 | -97.68011 | 1135 ft | 125 kts | 176° |
| 2026-04-22 05:22 | 30.23307 | -97.67988 | 979 ft | 124 kts | 176° |
| 2026-04-22 05:22 | 30.22444 | -97.67959 | 831 ft | 125 kts | 177° |
| 2026-04-22 05:23 | 30.21574 | -97.67941 | 600 ft | 125 kts | 176° |
| 2026-04-22 05:23 | 30.20727 | -97.67921 | 509 ft | 115 kts | 177° |
| 2026-04-22 05:23 | 30.20254 | -97.67907 | 504 ft | 88 kts | 179° |
| 2026-04-22 05:23 | 30.19816 | -97.67900 | 502 ft | 38 kts | 179° |
| 2026-04-22 05:24 | 30.19568 | -97.67888 | 502 ft | 28 kts | 176° |
| 2026-04-22 05:24 | 30.19420 | -97.67814 | 504 ft | 22 kts | 138° |
| 2026-04-22 05:24 | 30.19393 | -97.67661 | 505 ft | 20 kts | 88° |
| 2026-04-22 05:24 | 30.19396 | -97.67503 | 506 ft | 11 kts | 88° |
| 2026-04-22 05:25 | 30.19399 | -97.67405 | 505 ft | 14 kts | 88° |
| 2026-04-22 05:25 | 30.19402 | -97.67293 | 502 ft | 15 kts | 89° |
| 2026-04-22 05:25 | 30.19436 | -97.67219 | 501 ft | 11 kts | 6° |
| 2026-04-22 05:25 | 30.19469 | -97.67161 | 501 ft | 8 kts | 88° |
| 2026-04-22 05:26 | 30.19469 | -97.67136 | 501 ft | 0 kts | 89° |
| 2026-04-22 05:28 | 30.19469 | -97.67135 | 501 ft | 1 kts | 89° |
| 2026-04-22 05:28 | 30.19470 | -97.67113 | 501 ft | 3 kts | 88° |
| 2026-04-22 05:28 | 30.19470 | -97.67093 | 501 ft | 2 kts | 88° |
| 2026-04-22 05:28 | 30.19470 | -97.67077 | 501 ft | 2 kts | 98° |
| 2026-04-22 05:29 | 30.19464 | -97.67067 | 501 ft | 3 kts | 124° |
| 2026-04-22 05:29 | 30.19430 | -97.67054 | 501 ft | 5 kts | 174° |
| 2026-04-22 05:29 | 30.19410 | -97.67053 | 501 ft | 2 kts | 177° |
| 2026-04-22 05:29 | 30.19408 | -97.67053 | 501 ft | 0 kts | 177° |